createdAt,value
2018-12-31T00:02:28.213Z,92.00
2018-12-31T00:04:57.842Z,92.00
2018-12-31T00:07:27.727Z,91.80
2018-12-31T00:09:57.342Z,91.80
2018-12-31T00:12:26.965Z,91.90
2018-12-31T00:14:56.753Z,91.70
2018-12-31T00:17:27.229Z,91.70
2018-12-31T00:19:56.848Z,91.50
2018-12-31T00:22:27.360Z,91.50
2018-12-31T00:24:56.973Z,91.60
2018-12-31T00:27:26.758Z,91.70
2018-12-31T00:29:56.838Z,91.70
2018-12-31T00:32:26.998Z,91.70
2018-12-31T00:34:57.185Z,91.80
2018-12-31T00:37:27.169Z,91.60
2018-12-31T00:39:56.945Z,91.60
2018-12-31T00:42:26.964Z,91.50
2018-12-31T00:44:56.976Z,91.50
2018-12-31T00:47:27.054Z,91.50
2018-12-31T00:49:57.019Z,91.30
2018-12-31T00:52:27.345Z,91.30
2018-12-31T00:54:58.448Z,91.30
2018-12-31T00:57:28.091Z,91.40
2018-12-31T00:59:58.662Z,91.40
2018-12-31T01:02:29.738Z,91.40
2018-12-31T01:04:59.361Z,91.50
2018-12-31T01:07:28.990Z,91.70
2018-12-31T01:09:58.853Z,91.80
2018-12-31T01:12:28.469Z,91.70
2018-12-31T01:14:58.468Z,91.70
2018-12-31T01:17:28.165Z,91.70
2018-12-31T01:19:58.443Z,91.70
2018-12-31T01:22:28.276Z,91.70
2018-12-31T01:24:58.240Z,91.70
2018-12-31T01:27:28.218Z,91.80
2018-12-31T01:29:58.266Z,91.90
2018-12-31T01:32:28.252Z,91.90
2018-12-31T01:34:58.686Z,91.80
2018-12-31T01:37:28.393Z,92.00
2018-12-31T01:39:58.465Z,91.90
2018-12-31T01:42:28.702Z,92.10
2018-12-31T01:44:58.461Z,92.10
2018-12-31T01:47:28.469Z,92.10
2018-12-31T01:49:58.717Z,92.00
2018-12-31T01:52:28.509Z,91.90
2018-12-31T01:54:58.524Z,92.00
2018-12-31T01:57:28.529Z,92.00
2018-12-31T01:59:58.560Z,92.00
2018-12-31T02:02:28.625Z,92.10
2018-12-31T02:04:58.952Z,92.20
2018-12-31T02:07:28.603Z,92.30
2018-12-31T02:09:58.769Z,92.40
2018-12-31T02:12:28.753Z,92.20
2018-12-31T02:14:58.807Z,92.10
2018-12-31T02:17:29.353Z,92.10
2018-12-31T02:19:58.965Z,92.00
2018-12-31T02:22:28.844Z,92.00
2018-12-31T02:24:59.376Z,92.10
2018-12-31T02:27:29.003Z,92.20
2018-12-31T02:29:58.884Z,92.00
2018-12-31T02:32:29.586Z,92.10
2018-12-31T02:34:59.254Z,92.10
2018-12-31T02:37:29.261Z,92.00
2018-12-31T02:39:59.007Z,92.30
2018-12-31T02:42:28.986Z,92.30
2018-12-31T02:44:59.293Z,92.20
2018-12-31T02:47:29.011Z,92.20
2018-12-31T02:49:59.326Z,92.10
2018-12-31T02:52:29.446Z,92.10
2018-12-31T02:54:59.069Z,92.00
2018-12-31T02:57:29.136Z,91.90
2018-12-31T02:59:59.438Z,91.90
2018-12-31T03:02:29.915Z,92.00
2018-12-31T03:04:59.798Z,92.10
2018-12-31T03:07:29.834Z,92.30
2018-12-31T03:09:59.444Z,91.90
2018-12-31T03:12:29.345Z,91.80
2018-12-31T03:14:59.385Z,91.90
2018-12-31T03:17:29.142Z,92.00
2018-12-31T03:19:59.454Z,91.90
2018-12-31T03:22:29.178Z,91.80
2018-12-31T03:24:59.501Z,91.60
2018-12-31T03:27:29.501Z,91.70
2018-12-31T03:29:59.495Z,91.80
2018-12-31T03:32:29.254Z,91.80
2018-12-31T03:34:59.559Z,91.90
2018-12-31T03:37:29.297Z,91.90
2018-12-31T03:39:59.318Z,91.70
2018-12-31T03:42:29.321Z,91.60
2018-12-31T03:44:59.341Z,91.40
2018-12-31T03:47:29.360Z,91.40
2018-12-31T03:49:59.271Z,91.50
2018-12-31T03:52:29.573Z,91.60
2018-12-31T03:54:59.320Z,91.60
2018-12-31T03:57:29.321Z,91.60
2018-12-31T03:59:59.637Z,91.50
2018-12-31T04:02:29.376Z,91.60
2018-12-31T04:04:59.737Z,91.50
2018-12-31T04:07:29.677Z,91.60
2018-12-31T04:09:59.425Z,91.70
2018-12-31T04:12:29.440Z,91.60
2018-12-31T04:14:59.802Z,91.50
2018-12-31T04:17:29.478Z,91.50
2018-12-31T04:19:59.496Z,91.60
2018-12-31T04:22:29.522Z,91.40
2018-12-31T04:24:59.918Z,91.40
2018-12-31T04:27:29.820Z,91.30
2018-12-31T04:29:59.584Z,91.20
2018-12-31T04:32:29.600Z,91.30
2018-12-31T04:34:59.575Z,91.30
2018-12-31T04:37:29.541Z,91.30
2018-12-31T04:39:59.582Z,91.50
2018-12-31T04:42:29.622Z,91.30
2018-12-31T04:44:59.596Z,91.50
2018-12-31T04:47:30.153Z,91.50
2018-12-31T04:49:59.864Z,91.40
2018-12-31T04:52:49.108Z,91.30
2018-12-31T04:55:18.969Z,91.00
2018-12-31T04:57:48.905Z,91.20
2018-12-31T05:00:18.533Z,91.30
2018-12-31T05:02:48.457Z,91.30
2018-12-31T05:05:18.122Z,91.20
2018-12-31T05:07:47.890Z,91.30
2018-12-31T05:10:17.793Z,91.20
2018-12-31T05:12:47.685Z,91.20
2018-12-31T05:15:17.362Z,91.20
2018-12-31T05:17:46.995Z,91.20
2018-12-31T05:20:16.926Z,91.20
2018-12-31T05:22:46.577Z,91.20
2018-12-31T05:25:16.450Z,91.20
2018-12-31T05:27:46.072Z,91.20
2018-12-31T05:30:16.421Z,91.40
2018-12-31T05:32:46.090Z,91.40
2018-12-31T05:35:15.952Z,91.40
2018-12-31T05:37:45.587Z,91.60
2018-12-31T05:40:15.204Z,91.40
2018-12-31T05:42:45.081Z,91.40
2018-12-31T05:45:14.701Z,91.40
2018-12-31T05:47:44.433Z,91.40
2018-12-31T05:50:14.049Z,91.30
2018-12-31T05:52:43.832Z,91.40
2018-12-31T05:55:13.945Z,91.40
2018-12-31T05:57:43.846Z,91.40
2018-12-31T06:00:13.484Z,91.50
2018-12-31T06:02:43.121Z,91.40
2018-12-31T06:05:12.748Z,91.40
2018-12-31T06:07:42.379Z,91.50
2018-12-31T06:10:12.305Z,91.70
2018-12-31T06:12:41.945Z,91.60
2018-12-31T06:15:11.822Z,91.60
2018-12-31T06:17:41.482Z,91.60
2018-12-31T06:20:11.106Z,91.60
2018-12-31T06:22:40.734Z,91.60
2018-12-31T06:25:10.599Z,91.40
2018-12-31T06:27:40.220Z,91.40
2018-12-31T06:30:10.146Z,91.30
2018-12-31T06:32:40.013Z,91.30
2018-12-31T06:35:09.624Z,91.30
2018-12-31T06:37:39.250Z,91.80
2018-12-31T06:40:08.956Z,91.40
2018-12-31T06:42:38.647Z,91.30
2018-12-31T06:45:08.427Z,91.20
2018-12-31T06:47:38.413Z,91.30
2018-12-31T06:50:08.421Z,91.30
2018-12-31T06:52:38.415Z,91.40
2018-12-31T06:55:08.309Z,91.50
2018-12-31T06:57:37.965Z,91.40
2018-12-31T07:00:07.972Z,91.40
2018-12-31T07:02:37.637Z,91.40
2018-12-31T07:05:07.354Z,91.30
2018-12-31T07:07:37.079Z,91.40
2018-12-31T07:10:07.438Z,91.30
2018-12-31T07:12:37.294Z,91.30
2018-12-31T07:15:07.041Z,91.10
2018-12-31T07:17:36.735Z,91.20
2018-12-31T07:20:06.979Z,91.20
2018-12-31T07:22:36.629Z,91.30
2018-12-31T07:25:06.663Z,91.20
2018-12-31T07:27:36.285Z,91.20
2018-12-31T07:30:06.252Z,91.30
2018-12-31T07:32:35.882Z,91.30
2018-12-31T07:35:05.576Z,91.40
2018-12-31T07:37:35.201Z,91.50
2018-12-31T07:40:05.251Z,91.40
2018-12-31T07:42:34.865Z,91.50
2018-12-31T07:45:04.785Z,91.40
2018-12-31T07:47:34.433Z,91.40
2018-12-31T07:50:04.805Z,91.30
2018-12-31T07:52:34.425Z,91.40
2018-12-31T07:55:04.336Z,91.40
2018-12-31T07:57:34.262Z,91.40
2018-12-31T08:00:05.165Z,91.50
2018-12-31T08:02:34.790Z,91.50
2018-12-31T08:05:04.973Z,91.70
2018-12-31T08:07:35.315Z,91.70
2018-12-31T08:10:05.285Z,91.60
2018-12-31T08:12:35.244Z,91.70
2018-12-31T08:15:05.220Z,91.60
2018-12-31T08:17:34.857Z,91.60
2018-12-31T08:20:05.032Z,91.60
2018-12-31T08:22:34.925Z,91.50
2018-12-31T08:25:05.041Z,91.50
2018-12-31T08:27:34.989Z,91.50
2018-12-31T08:30:05.128Z,91.40
2018-12-31T08:32:34.758Z,91.50
2018-12-31T08:35:04.633Z,91.50
2018-12-31T08:37:34.266Z,91.50
2018-12-31T08:40:04.266Z,91.50
2018-12-31T08:42:34.217Z,91.60
2018-12-31T08:45:04.496Z,91.60
2018-12-31T08:47:34.425Z,91.60
2018-12-31T08:50:04.279Z,91.60
2018-12-31T08:52:34.163Z,91.60
2018-12-31T08:55:04.142Z,91.80
2018-12-31T08:57:33.769Z,91.50
2018-12-31T09:00:03.861Z,91.50
2018-12-31T09:02:34.568Z,91.50
2018-12-31T09:05:04.378Z,91.60
2018-12-31T09:07:34.346Z,91.80
2018-12-31T09:10:04.690Z,91.80
2018-12-31T09:12:34.310Z,91.90
2018-12-31T09:15:04.459Z,91.90
2018-12-31T09:17:34.635Z,91.90
2018-12-31T09:20:04.985Z,91.90
2018-12-31T09:22:34.972Z,92.00
2018-12-31T09:25:05.015Z,92.00
2018-12-31T09:27:34.649Z,91.90
2018-12-31T09:30:04.732Z,92.10
2018-12-31T09:32:34.708Z,91.90
2018-12-31T09:35:04.671Z,91.90
2018-12-31T09:37:34.572Z,92.00
2018-12-31T09:40:04.531Z,92.00
2018-12-31T09:42:34.357Z,91.90
2018-12-31T09:45:04.206Z,92.10
2018-12-31T09:47:33.971Z,92.00
2018-12-31T09:50:04.182Z,91.90
2018-12-31T09:52:34.046Z,92.00
2018-12-31T09:55:03.704Z,92.00
2018-12-31T09:57:33.784Z,92.00
2018-12-31T10:00:03.573Z,92.20
2018-12-31T10:02:34.470Z,92.20
2018-12-31T10:05:04.583Z,92.20
2018-12-31T10:07:34.504Z,92.60
2018-12-31T10:10:04.214Z,92.20
2018-12-31T10:12:34.062Z,92.20
2018-12-31T10:15:03.761Z,92.40
2018-12-31T10:17:33.646Z,92.40
2018-12-31T10:20:03.609Z,92.60
2018-12-31T10:22:33.302Z,92.50
2018-12-31T10:25:02.992Z,93.10
2018-12-31T10:27:32.653Z,93.20
2018-12-31T10:30:02.340Z,93.20
2018-12-31T10:32:32.351Z,93.00
2018-12-31T10:35:02.452Z,93.00
2018-12-31T10:37:32.401Z,93.00
2018-12-31T10:40:02.448Z,93.00
2018-12-31T10:42:32.704Z,92.90
2018-12-31T10:45:02.448Z,93.00
2018-12-31T10:47:32.800Z,92.90
2018-12-31T10:50:03.730Z,92.70
2018-12-31T10:52:33.345Z,92.80
2018-12-31T10:55:03.277Z,93.00
2018-12-31T10:57:32.997Z,92.80
2018-12-31T11:00:02.717Z,92.60
2018-12-31T11:02:32.608Z,92.50
2018-12-31T11:05:02.496Z,92.60
2018-12-31T11:07:32.522Z,92.60
2018-12-31T11:10:02.653Z,92.70
2018-12-31T11:12:32.585Z,92.70
2018-12-31T11:15:02.571Z,92.90
2018-12-31T11:17:32.590Z,92.90
2018-12-31T11:20:02.672Z,92.80
2018-12-31T11:22:32.911Z,92.80
2018-12-31T11:25:02.660Z,92.80
2018-12-31T11:27:32.710Z,93.00
2018-12-31T11:30:02.581Z,92.90
2018-12-31T11:32:32.967Z,92.40
2018-12-31T11:35:02.596Z,92.70
2018-12-31T11:37:34.785Z,92.60
2018-12-31T11:40:04.446Z,92.70
2018-12-31T11:42:34.094Z,92.90
2018-12-31T11:45:05.240Z,92.90
2018-12-31T11:47:35.848Z,92.90
2018-12-31T11:50:06.040Z,92.80
2018-12-31T11:52:35.678Z,92.90
2018-12-31T11:55:05.450Z,92.90
2018-12-31T11:57:35.182Z,92.80
2018-12-31T12:00:07.720Z,92.80
2018-12-31T12:02:38.946Z,92.70
2018-12-31T12:05:08.720Z,92.50
2018-12-31T12:07:38.348Z,92.80
2018-12-31T12:10:08.081Z,92.50
2018-12-31T12:12:37.700Z,92.60
2018-12-31T12:15:07.321Z,92.70
2018-12-31T12:17:37.205Z,92.80
2018-12-31T12:20:07.228Z,92.80
2018-12-31T12:22:36.870Z,92.90
2018-12-31T12:25:06.652Z,92.90
2018-12-31T12:27:36.360Z,92.90
2018-12-31T12:30:07.248Z,92.90
2018-12-31T12:32:36.861Z,92.80
2018-12-31T12:35:07.109Z,92.60
2018-12-31T12:37:36.749Z,92.70
2018-12-31T12:40:06.716Z,92.90
2018-12-31T12:42:36.342Z,93.10
2018-12-31T12:45:06.840Z,93.20
2018-12-31T12:47:36.464Z,93.20
2018-12-31T12:50:06.271Z,93.20
2018-12-31T12:52:36.338Z,93.20
2018-12-31T12:55:06.385Z,93.20
2018-12-31T12:57:36.465Z,93.10
2018-12-31T13:00:07.089Z,93.20
2018-12-31T13:02:36.798Z,93.20
2018-12-31T13:05:06.525Z,93.10
2018-12-31T13:07:36.153Z,93.10
2018-12-31T13:10:06.698Z,93.10
2018-12-31T13:12:36.330Z,93.00
2018-12-31T13:15:06.745Z,93.00
2018-12-31T13:17:36.679Z,93.10
2018-12-31T13:20:06.821Z,92.90
2018-12-31T13:22:36.721Z,92.90
2018-12-31T13:25:07.369Z,92.90
2018-12-31T13:27:36.990Z,92.90
2018-12-31T13:30:06.894Z,92.90
2018-12-31T13:32:36.505Z,92.90
2018-12-31T13:35:06.789Z,92.90
2018-12-31T13:37:36.512Z,93.10
2018-12-31T13:40:06.524Z,93.10
2018-12-31T13:42:36.590Z,93.00
2018-12-31T13:45:06.651Z,93.10
2018-12-31T13:47:36.643Z,93.00
2018-12-31T13:50:06.532Z,93.40
2018-12-31T13:52:36.400Z,93.10
2018-12-31T13:55:06.869Z,93.40
2018-12-31T13:57:36.556Z,93.30
2018-12-31T14:00:07.929Z,93.30
2018-12-31T14:02:37.664Z,93.50
2018-12-31T14:05:07.475Z,93.50
2018-12-31T14:07:37.160Z,93.60
2018-12-31T14:10:07.081Z,93.60
2018-12-31T14:12:37.304Z,93.50
2018-12-31T14:15:07.125Z,93.60
2018-12-31T14:17:36.928Z,93.80
2018-12-31T14:20:06.825Z,93.70
2018-12-31T14:22:36.938Z,93.60
2018-12-31T14:25:06.780Z,93.60
2018-12-31T14:27:36.665Z,93.50
2018-12-31T14:30:08.565Z,93.40
2018-12-31T14:32:38.517Z,93.40
2018-12-31T14:35:08.369Z,93.50
2018-12-31T14:37:39.071Z,93.60
2018-12-31T14:40:09.398Z,93.50
2018-12-31T14:42:39.102Z,93.70
2018-12-31T14:45:08.801Z,93.70
2018-12-31T14:47:38.435Z,93.70
2018-12-31T14:50:08.161Z,93.60
2018-12-31T14:52:37.800Z,93.90
2018-12-31T14:55:07.548Z,94.00
2018-12-31T14:57:37.216Z,93.90
2018-12-31T15:00:10.091Z,93.90
2018-12-31T15:02:41.292Z,93.90
2018-12-31T15:05:11.228Z,93.80
2018-12-31T15:07:41.122Z,93.80
2018-12-31T15:10:11.142Z,94.00
2018-12-31T15:12:40.765Z,93.80
2018-12-31T15:15:10.538Z,93.80
2018-12-31T15:17:40.160Z,93.90
2018-12-31T15:20:10.901Z,93.80
2018-12-31T15:22:40.515Z,93.90
2018-12-31T15:25:10.461Z,94.00
2018-12-31T15:27:40.395Z,94.10
2018-12-31T15:30:10.317Z,94.00
2018-12-31T15:32:39.945Z,93.90
2018-12-31T15:35:09.583Z,93.70
2018-12-31T15:37:39.481Z,93.70
2018-12-31T15:40:09.480Z,93.70
2018-12-31T15:42:39.191Z,93.70
2018-12-31T15:45:09.229Z,93.40
2018-12-31T15:47:38.856Z,93.40
2018-12-31T15:50:09.018Z,93.40
2018-12-31T15:52:39.233Z,93.30
2018-12-31T15:55:08.844Z,93.20
2018-12-31T15:57:38.985Z,93.10
2018-12-31T16:00:10.694Z,93.00
2018-12-31T16:02:40.334Z,93.20
2018-12-31T16:05:09.969Z,93.20
2018-12-31T16:07:45.642Z,92.90
2018-12-31T16:10:11.293Z,92.90
2018-12-31T16:12:42.828Z,92.90
2018-12-31T16:15:12.662Z,92.80
2018-12-31T16:17:42.916Z,92.60
2018-12-31T16:20:12.857Z,92.70
2018-12-31T16:22:43.444Z,92.60
2018-12-31T16:25:13.906Z,92.70
2018-12-31T16:27:44.054Z,92.50
2018-12-31T16:30:14.150Z,92.60
2018-12-31T16:32:43.979Z,92.50
2018-12-31T16:35:13.621Z,92.50
2018-12-31T16:37:43.241Z,92.40
2018-12-31T16:40:12.902Z,92.30
2018-12-31T16:42:42.794Z,92.40
2018-12-31T16:45:12.414Z,92.50
2018-12-31T16:47:42.121Z,92.60
2018-12-31T16:50:11.746Z,92.40
2018-12-31T16:52:41.705Z,92.50
2018-12-31T16:55:11.664Z,92.50
2018-12-31T16:57:41.579Z,92.50
2018-12-31T17:00:11.942Z,92.50
2018-12-31T17:02:41.568Z,92.70
2018-12-31T17:05:11.286Z,92.50
2018-12-31T17:07:41.344Z,92.50
2018-12-31T17:10:11.134Z,92.50
2018-12-31T17:12:42.482Z,92.40
2018-12-31T17:15:12.233Z,92.30
2018-12-31T17:17:41.869Z,92.30
2018-12-31T17:20:12.566Z,92.40
2018-12-31T17:22:42.330Z,92.20
2018-12-31T17:25:11.949Z,92.20
2018-12-31T17:27:41.569Z,92.20
2018-12-31T17:30:11.455Z,92.30
2018-12-31T17:32:41.606Z,92.10
2018-12-31T17:35:11.264Z,92.00
2018-12-31T17:37:41.443Z,92.10
2018-12-31T17:40:11.094Z,92.20
2018-12-31T17:42:41.038Z,92.20
2018-12-31T17:45:10.881Z,92.10
2018-12-31T17:47:40.828Z,92.20
2018-12-31T17:50:10.561Z,92.10
2018-12-31T17:52:40.320Z,92.10
2018-12-31T17:55:09.986Z,92.10
2018-12-31T17:57:40.244Z,92.10
2018-12-31T18:00:13.075Z,92.10
2018-12-31T18:02:43.708Z,92.10
2018-12-31T18:05:13.368Z,92.10
2018-12-31T18:07:43.044Z,92.30
2018-12-31T18:10:12.965Z,92.20
2018-12-31T18:12:42.643Z,92.00
2018-12-31T18:15:12.854Z,92.00
2018-12-31T18:17:42.473Z,91.70
2018-12-31T18:20:12.171Z,91.80
2018-12-31T18:22:41.867Z,91.80
2018-12-31T18:25:11.815Z,92.10
2018-12-31T18:27:41.492Z,92.30
2018-12-31T18:30:11.239Z,92.20
2018-12-31T18:32:41.140Z,92.20
2018-12-31T18:35:11.092Z,92.20
2018-12-31T18:37:41.859Z,92.10
2018-12-31T18:40:12.059Z,92.20
2018-12-31T18:42:41.712Z,92.20
2018-12-31T18:45:11.450Z,92.10
2018-12-31T18:47:42.616Z,92.10
2018-12-31T18:50:12.307Z,92.20
2018-12-31T18:52:41.965Z,92.20
2018-12-31T18:55:11.628Z,92.10
2018-12-31T18:57:41.764Z,91.90
2018-12-31T19:00:11.546Z,91.90
2018-12-31T19:02:41.467Z,91.90
2018-12-31T19:05:11.317Z,91.80
2018-12-31T19:07:40.985Z,91.90
2018-12-31T19:10:10.671Z,91.60
2018-12-31T19:12:40.349Z,91.80
2018-12-31T19:15:09.967Z,91.90
2018-12-31T19:17:39.833Z,91.60
2018-12-31T19:20:09.917Z,91.60
2018-12-31T19:22:40.178Z,91.70
2018-12-31T19:25:11.315Z,91.90
2018-12-31T19:27:41.049Z,91.70
2018-12-31T19:30:11.116Z,91.70
2018-12-31T19:32:40.729Z,91.60
2018-12-31T19:35:10.809Z,91.80
2018-12-31T19:37:40.501Z,91.60
2018-12-31T19:40:10.272Z,91.60
2018-12-31T19:42:40.285Z,91.50
2018-12-31T19:45:10.081Z,91.30
2018-12-31T19:47:40.058Z,91.40
2018-12-31T19:50:10.598Z,91.30
2018-12-31T19:52:40.542Z,91.40
2018-12-31T19:55:10.164Z,91.20
2018-12-31T19:57:40.328Z,91.00
2018-12-31T20:00:10.163Z,90.90
2018-12-31T20:02:40.146Z,91.00
2018-12-31T20:05:10.053Z,90.80
2018-12-31T20:07:40.093Z,90.90
2018-12-31T20:10:10.121Z,90.70
2018-12-31T20:12:40.128Z,90.90
2018-12-31T20:15:10.939Z,91.00
2018-12-31T20:17:40.561Z,91.00
2018-12-31T20:20:10.452Z,91.10
2018-12-31T20:22:40.457Z,91.20
2018-12-31T20:25:10.302Z,91.30
2018-12-31T20:27:40.254Z,91.60
2018-12-31T20:30:10.371Z,91.20
2018-12-31T20:32:40.351Z,91.40
2018-12-31T20:35:10.587Z,91.50
2018-12-31T20:37:40.331Z,91.70
2018-12-31T20:40:10.378Z,91.90
2018-12-31T20:42:40.542Z,92.10
2018-12-31T20:45:10.265Z,92.40
2018-12-31T20:47:40.324Z,92.40
2018-12-31T20:50:10.306Z,92.40
2018-12-31T20:52:40.349Z,92.40
2018-12-31T20:55:10.625Z,92.30
2018-12-31T20:57:40.378Z,92.50
2018-12-31T21:00:10.379Z,92.30
2018-12-31T21:02:40.689Z,92.40
2018-12-31T21:05:11.555Z,92.30
2018-12-31T21:07:41.253Z,92.20
2018-12-31T21:10:11.513Z,91.90
2018-12-31T21:12:41.460Z,92.00
2018-12-31T21:15:11.106Z,91.60
2018-12-31T21:17:41.027Z,91.40
2018-12-31T21:20:10.806Z,91.60
2018-12-31T21:22:40.497Z,91.30
2018-12-31T21:25:10.509Z,91.10
2018-12-31T21:27:40.507Z,91.10
2018-12-31T21:30:11.344Z,91.20
2018-12-31T21:32:41.029Z,90.80
2018-12-31T21:35:10.868Z,91.00
2018-12-31T21:37:41.062Z,90.80
2018-12-31T21:40:10.904Z,90.40
2018-12-31T21:42:40.632Z,90.20
2018-12-31T21:45:10.605Z,90.40
2018-12-31T21:47:40.778Z,89.80
2018-12-31T21:50:11.049Z,89.70
2018-12-31T21:52:40.681Z,89.80
2018-12-31T21:55:10.604Z,89.00
2018-12-31T21:57:40.741Z,89.30
2018-12-31T22:00:11.253Z,89.40
2018-12-31T22:02:41.551Z,88.90
2018-12-31T22:05:11.261Z,88.50
2018-12-31T22:07:40.883Z,88.20
2018-12-31T22:10:11.226Z,88.00
2018-12-31T22:12:40.833Z,88.40
2018-12-31T22:15:11.204Z,88.40
2018-12-31T22:17:40.826Z,88.90
2018-12-31T22:20:11.116Z,87.50
2018-12-31T22:22:40.786Z,88.00
2018-12-31T22:25:10.814Z,88.70
2018-12-31T22:27:40.820Z,88.40
2018-12-31T22:30:11.233Z,88.40
2018-12-31T22:32:41.162Z,88.90
2018-12-31T22:35:10.849Z,88.80
2018-12-31T22:37:40.977Z,88.30
2018-12-31T22:40:11.125Z,89.00
2018-12-31T22:42:40.864Z,88.80
2018-12-31T22:45:10.906Z,88.70
2018-12-31T22:47:40.882Z,88.60
2018-12-31T22:50:11.513Z,89.00
2018-12-31T22:52:41.234Z,89.40
2018-12-31T22:55:10.909Z,88.70
2018-12-31T22:57:40.982Z,88.60
2018-12-31T23:00:11.933Z,88.60
2018-12-31T23:02:43.634Z,88.20
2018-12-31T23:05:14.948Z,88.00
2018-12-31T23:07:44.642Z,87.60
2018-12-31T23:10:14.499Z,87.10
2018-12-31T23:12:44.533Z,87.50
2018-12-31T23:15:17.783Z,86.70
2018-12-31T23:17:47.538Z,87.40
2018-12-31T23:20:17.666Z,86.50
2018-12-31T23:22:47.321Z,87.60
2018-12-31T23:25:17.637Z,86.40
2018-12-31T23:27:47.867Z,86.20
2018-12-31T23:30:17.557Z,85.70
2018-12-31T23:32:47.356Z,85.60
2018-12-31T23:35:17.368Z,86.80
2018-12-31T23:37:47.458Z,85.80
2018-12-31T23:40:17.461Z,86.50
2018-12-31T23:42:47.376Z,85.60
2018-12-31T23:45:17.044Z,86.20
2018-12-31T23:47:46.719Z,86.50
2018-12-31T23:50:16.451Z,86.90
2018-12-31T23:52:46.362Z,87.60
2018-12-31T23:55:16.152Z,87.30
2018-12-31T23:57:46.053Z,87.60
